AElvsbyn, Sweden

10:09 AM CET on November 24, 2017 (GMT +0100)
Älvsbyn Municipality | | Change Station

Elev 0 ft 65.67 °N, 21.02 °E | Updated 4 minutes ago

Overcast
Overcast
35.6 °F
Feels Like 36 °F
N
2.5
Wind Variable Wind from SE
Gusts 5.0 mph

Today
High -- | Low -- °F
--% Chance of Precip.
Yesterday
High -- | Low -- °F
Precip. -- in
Pressure 29.27 in
Visibility 1.5 miles
Clouds Scattered Clouds 100 ft
Mostly Cloudy 2100 ft
Overcast 3700 ft
Windchill 36 °F
Dew Point 36 °F
Humidity 100%
Rainfall 0.00 in
Snow Depth Not available.
8:52 AM 1:51 PM
Waxing Crescent, 28% visible
METAR ESPE 240850Z AUTO 14010KT 2400 R11/P2000N R29/0650VP2000U BR SCT001/// BKN021/// OVC037/// 01/01 Q0991
Pressure 29.27 in
Visibility 1.5 miles
Clouds Scattered Clouds 100 ft
Mostly Cloudy 2100 ft
Overcast 3700 ft
Windchill 36 °F
Dew Point 36 °F
Humidity 100%
Rainfall 0.00 in
Snow Depth Not available.
8:52 AM 1:51 PM
Waxing Crescent, 28% visible
METAR ESPE 240850Z AUTO 14010KT 2400 R11/P2000N R29/0650VP2000U BR SCT001/// BKN021/// OVC037/// 01/01 Q0991

Get Severe Weather Alerts

Thanks for signing up!

Be on the lookout for a verification email in your inbox.

You'll start receiving the daily forecast at 6 AM.

×

10-Day Weather Forecast

×

Almanac

Astronomy

Nov. 24, 2017 Rise Set
Actual Time
Civil Twilight
Nautical Twilight
Astronomical Twilight
Moon
Length of Visible Light
Length of Day
Tomorrow will be .
, % of the Moon is Illuminated

Today's Extremes

Country Highs Country Lows

Community

WunderPhotos

Category 6

Welcome to Category 6. This is the collective home for Weather Underground's featured writeups by Dr. Jeff Masters (right), Bob Henson (left), Chris Burt, and other regular contributors.

Nearby

Air Quality

  Air Quality AQ Index Pollutant
Not available.

Snow Depth

Station Depth Elevation

Earthquake Activity

City Distance Mag. Time & Date
Minimum magnitude displayed is 2.5.

Coastal Water Temperatures

Place Temperature

Stations

Nearby Weather Stations

Station Location Temp. Windchill Dew Point Humidity Wind Precip. Elev Updated Type